Time;durP1;ratioP1;P1;durP2;ratioP2;P2;SDS_P1;SDS_P2;PMS_P1;PMS_P2;Temp;Humidity;BMP_temperature;BMP_pressure;BME280_temperature;BME280_humidity;BME280_pressure;Samples;Min_cycle;Max_cycle;Signal;HPM_P1;HPM_P2
2024/01/01 00:00:16;;;;;;;25.77;14.27;;;;;;;7.59;87.49;99351.28;4940244;29;20079;-83
2024/01/01 00:02:43;;;;;;;42.13;24.73;;;;;;;7.60;87.37;99339.97;4929071;29;20055;-82
2024/01/01 00:05:10;;;;;;;18.40;10.45;;;;;;;7.57;87.82;99337.44;4938816;29;20543;-83
2024/01/01 00:07:37;;;;;;;11.45;6.20;;;;;;;7.53;87.42;99338.34;4938316;29;20094;-82
2024/01/01 00:10:06;;;;;;;7.32;4.75;;;;;;;7.53;87.59;99329.69;4938868;29;20081;-81
2024/01/01 00:12:33;;;;;;;11.60;6.38;;;;;;;7.50;87.82;99341.03;4937411;29;20058;-83
2024/01/01 00:15:03;;;;;;;10.98;5.05;;;;;;;7.52;88.17;99340.97;4927252;29;20079;-82
2024/01/01 00:17:30;;;;;;;9.43;5.97;;;;;;;7.50;88.20;99346.22;4934556;29;20044;-82
2024/01/01 00:19:59;;;;;;;14.77;4.85;;;;;;;7.48;88.13;99350.59;4928713;29;20047;-82
2024/01/01 00:22:27;;;;;;;10.70;3.85;;;;;;;7.50;88.30;99354.03;4938534;29;20057;-81
2024/01/01 00:24:54;;;;;;;12.98;6.68;;;;;;;7.48;88.43;99350.59;4923395;29;20079;-83
2024/01/01 00:27:20;;;;;;;7.95;3.72;;;;;;;7.46;88.43;99352.38;4926407;29;20047;-83
2024/01/01 00:29:49;;;;;;;11.02;4.40;;;;;;;7.43;88.97;99357.63;4939275;29;20056;-82
2024/01/01 00:32:16;;;;;;;6.35;4.32;;;;;;;7.43;89.16;99363.69;4941773;29;20059;-82
2024/01/01 00:34:44;;;;;;;10.52;4.00;;;;;;;7.49;88.80;99354.06;4936761;29;20051;-83
2024/01/01 00:37:11;;;;;;;9.55;4.90;;;;;;;7.48;88.72;99355.78;4932060;29;20079;-83
2024/01/01 00:39:38;;;;;;;8.45;3.10;;;;;;;7.50;88.41;99351.44;4923877;29;20108;-83
2024/01/01 00:42:05;;;;;;;9.25;3.65;;;;;;;7.54;88.07;99358.31;4951493;29;20142;-82
2024/01/01 00:44:33;;;;;;;8.45;3.03;;;;;;;7.58;88.18;99369.53;4941992;29;20058;-83
2024/01/01 00:46:59;;;;;;;9.20;3.92;;;;;;;7.58;88.08;99357.34;4933062;29;20067;-82
2024/01/01 00:49:26;;;;;;;7.43;2.95;;;;;;;7.55;88.15;99359.19;4941506;29;20047;-83
2024/01/01 00:51:53;;;;;;;3.58;2.10;;;;;;;7.59;88.07;99364.28;4935855;29;20792;-82
2024/01/01 00:54:19;;;;;;;14.50;5.72;;;;;;;7.57;88.24;99362.59;4917825;29;20114;-84
2024/01/01 00:56:46;;;;;;;7.95;2.97;;;;;;;7.57;88.39;99366.09;4923843;29;20047;-81
2024/01/01 00:59:14;;;;;;;9.38;5.38;;;;;;;7.59;88.26;99366.03;4922442;29;20054;-83
2024/01/01 01:01:41;;;;;;;10.65;5.45;;;;;;;7.61;88.57;99374.69;4933950;29;20043;-83
2024/01/01 01:04:10;;;;;;;5.32;2.45;;;;;;;7.61;88.39;99377.28;4938626;29;20081;-82
2024/01/01 01:06:36;;;;;;;7.13;2.70;;;;;;;7.64;88.36;99381.56;4921290;29;20071;-82
2024/01/01 01:09:06;;;;;;;5.13;1.95;;;;;;;7.61;88.92;99387.69;4941203;29;20139;-82
2024/01/01 01:11:33;;;;;;;4.00;1.58;;;;;;;7.53;89.47;99390.44;4923980;29;20139;-82
2024/01/01 01:14:02;;;;;;;4.55;2.10;;;;;;;7.54;89.75;99386.94;4939517;29;20055;-83
2024/01/01 01:16:29;;;;;;;3.08;2.33;;;;;;;7.61;89.77;99387.69;4925830;29;20055;-83
2024/01/01 01:18:55;;;;;;;8.32;3.85;;;;;;;7.59;89.79;99385.13;4935274;29;20047;-83
2024/01/01 01:21:22;;;;;;;4.68;2.58;;;;;;;7.54;90.49;99384.34;4936862;29;20410;-82
2024/01/01 01:23:48;;;;;;;3.25;2.17;;;;;;;7.53;90.99;99386.97;4931920;29;20102;-83
2024/01/01 01:26:15;;;;;;;5.13;3.13;;;;;;;7.46;91.10;99383.63;4948342;29;20050;-83
2024/01/01 01:28:43;;;;;;;6.43;2.72;;;;;;;7.44;91.68;99388.88;4938686;29;20043;-83
2024/01/01 01:31:09;;;;;;;4.45;3.03;;;;;;;7.45;91.60;99405.34;4935993;29;20551;-82
2024/01/01 01:33:39;;;;;;;4.60;3.08;;;;;;;7.48;91.87;99394.00;4919097;29;20146;-82
2024/01/01 01:36:06;;;;;;;6.95;3.28;;;;;;;7.43;92.25;99389.75;4928217;29;20526;-83
2024/01/01 01:38:35;;;;;;;6.05;2.67;;;;;;;7.52;91.26;99385.25;4918652;29;20055;-84
2024/01/01 01:41:01;;;;;;;5.50;2.17;;;;;;;7.57;90.76;99393.84;4934087;29;20121;-83
2024/01/01 01:43:28;;;;;;;6.63;3.35;;;;;;;7.65;90.40;99391.97;4921818;29;20055;-83
2024/01/01 01:45:57;;;;;;;8.82;3.22;;;;;;;7.59;90.99;99394.69;4934908;29;20102;-83
2024/01/01 01:48:25;;;;;;;7.03;2.22;;;;;;;7.55;91.21;99393.03;4917385;28;20131;-82
2024/01/01 01:50:52;;;;;;;5.93;1.65;;;;;;;7.50;91.30;99393.09;4937177;29;20051;-83
2024/01/01 01:53:23;;;;;;;4.82;1.83;;;;;;;7.52;91.44;99398.28;4942807;29;20433;-83
2024/01/01 01:55:51;;;;;;;5.25;3.63;;;;;;;7.47;91.34;99403.56;4927130;29;20142;-83
2024/01/01 01:58:21;;;;;;;3.80;2.40;;;;;;;7.48;91.61;99405.28;4940156;29;20491;-81
2024/01/01 02:00:48;;;;;;;8.48;1.52;;;;;;;7.49;91.30;99398.34;4941605;29;20047;-82
2024/01/01 02:03:15;;;;;;;3.00;2.20;;;;;;;7.55;91.46;99403.44;4926786;29;20051;-83
2024/01/01 02:05:44;;;;;;;4.20;2.45;;;;;;;7.59;90.73;99392.09;4925840;29;20047;-82
2024/01/01 02:08:11;;;;;;;3.20;1.65;;;;;;;7.69;90.01;99398.88;4922804;29;20054;-83
2024/01/01 02:10:38;;;;;;;5.90;1.88;;;;;;;7.72;89.96;99395.34;4943292;29;20043;-82
2024/01/01 02:13:07;;;;;;;4.72;1.60;;;;;;;7.72;89.87;99388.38;4935707;29;20150;-81
2024/01/01 02:15:34;;;;;;;6.38;2.30;;;;;;;7.78;89.39;99393.50;4939320;29;20055;-83
2024/01/01 02:18:00;;;;;;;10.15;3.83;;;;;;;7.80;89.23;99390.00;4937552;29;20047;-81
2024/01/01 02:20:29;;;;;;;2.00;1.75;;;;;;;7.83;89.32;99387.34;4950629;29;20075;-81
2024/01/01 02:22:58;;;;;;;5.43;2.10;;;;;;;7.84;88.67;99387.28;4922606;29;20062;-82
2024/01/01 02:25:25;;;;;;;4.30;2.30;;;;;;;7.84;88.51;99381.25;4939636;29;20071;-82
2024/01/01 02:27:51;;;;;;;3.00;2.22;;;;;;;7.80;88.63;99385.63;4941803;29;20123;-82
2024/01/01 02:30:18;;;;;;;5.22;2.20;;;;;;;7.80;88.52;99388.25;4940164;29;20501;-83
2024/01/01 02:32:46;;;;;;;4.47;2.53;;;;;;;7.76;88.45;99382.22;4952727;29;20055;-81
2024/01/01 02:35:12;;;;;;;5.60;2.17;;;;;;;7.75;88.58;99395.28;4934122;29;20137;-82
2024/01/01 02:37:39;;;;;;;4.55;2.35;;;;;;;7.78;88.25;99387.41;4946147;29;20055;-83
2024/01/01 02:40:08;;;;;;;4.55;1.80;;;;;;;7.80;88.12;99393.44;4923204;29;20114;-82
2024/01/01 02:42:35;;;;;;;4.95;2.40;;;;;;;7.80;88.28;99390.84;4941041;29;20054;-81
2024/01/01 02:45:02;;;;;;;5.32;2.10;;;;;;;7.78;87.91;99385.69;4923022;29;20520;-80
2024/01/01 02:47:28;;;;;;;4.45;2.60;;;;;;;7.75;88.59;99388.31;4939482;29;20043;-83
2024/01/01 02:49:55;;;;;;;3.65;2.13;;;;;;;7.71;88.54;99385.81;4922438;29;20142;-81
2024/01/01 02:52:21;;;;;;;8.10;2.28;;;;;;;7.71;88.30;99399.69;4936681;29;20577;-83
2024/01/01 02:54:48;;;;;;;4.90;2.20;;;;;;;7.64;88.60;99398.09;4940219;29;20054;-81
2024/01/01 02:57:15;;;;;;;2.63;1.52;;;;;;;7.56;89.12;99392.13;4935695;29;20039;-81
2024/01/01 02:59:41;;;;;;;21.90;3.67;;;;;;;7.50;89.67;99390.50;4921321;28;20063;-81
2024/01/01 03:02:12;;;;;;;6.15;2.85;;;;;;;7.53;89.58;99393.03;4918866;29;20079;-82
2024/01/01 03:04:39;;;;;;;6.82;2.88;;;;;;;7.54;89.06;99384.34;4922949;29;20055;-83
2024/01/01 03:07:04;;;;;;;6.50;3.08;;;;;;;7.52;89.50;99391.34;4936348;29;20043;-83
2024/01/01 03:09:31;;;;;;;6.75;2.63;;;;;;;7.57;88.67;99388.63;4936071;29;20035;-82
2024/01/01 03:11:57;;;;;;;6.43;2.38;;;;;;;7.60;88.01;99385.97;4934564;29;20082;-83
2024/01/01 03:14:24;;;;;;;6.90;3.17;;;;;;;7.64;87.63;99384.19;4918681;29;20063;-82
2024/01/01 03:16:51;;;;;;;3.67;2.33;;;;;;;7.68;86.59;99375.41;4929794;29;20055;-81
2024/01/01 03:19:17;;;;;;;7.70;3.28;;;;;;;7.68;86.31;99365.88;4922198;29;20129;-80
2024/01/01 03:21:44;;;;;;;11.50;2.60;;;;;;;7.63;87.02;99370.31;4952041;29;20115;-81
2024/01/01 03:24:10;;;;;;;7.22;2.42;;;;;;;7.60;86.79;99379.03;4931605;29;20055;-83
2024/01/01 03:26:37;;;;;;;8.20;2.63;;;;;;;7.56;86.88;99393.00;4921468;29;20553;-82
2024/01/01 03:29:03;;;;;;;7.00;2.20;;;;;;;7.59;87.18;99394.69;4919891;29;20048;-83
2024/01/01 03:31:30;;;;;;;5.03;2.45;;;;;;;7.60;87.27;99397.28;4939581;29;20055;-82
2024/01/01 03:33:57;;;;;;;7.80;3.30;;;;;;;7.63;87.51;99393.75;4931386;29;20087;-81
2024/01/01 03:36:23;;;;;;;6.43;2.08;;;;;;;7.64;86.84;99399.81;4934309;29;20529;-81
2024/01/01 03:38:50;;;;;;;5.30;2.70;;;;;;;7.68;86.82;99399.75;4926896;29;20057;-81
2024/01/01 03:41:16;;;;;;;5.40;2.15;;;;;;;7.71;87.05;99397.06;4934815;29;20063;-82
2024/01/01 03:43:43;;;;;;;6.15;3.00;;;;;;;7.66;86.84;99379.81;4935256;29;20485;-80
2024/01/01 03:46:16;;;;;;;6.82;2.05;;;;;;;7.66;86.62;99382.44;4920440;29;20043;-81
2024/01/01 03:48:42;;;;;;;6.53;2.10;;;;;;;7.59;86.96;99385.13;4918124;29;20057;-81
2024/01/01 03:51:09;;;;;;;6.07;2.40;;;;;;;7.51;87.39;99373.13;4934651;29;20054;-82
2024/01/01 03:53:35;;;;;;;5.03;2.10;;;;;;;7.60;87.12;99376.44;4937016;29;20091;-82
2024/01/01 03:56:05;;;;;;;8.73;3.20;;;;;;;7.57;86.58;99373.91;4930700;29;20111;-82
2024/01/01 03:58:32;;;;;;;4.75;2.28;;;;;;;7.57;86.36;99368.69;4940926;29;20044;-82
2024/01/01 04:00:58;;;;;;;8.48;2.22;;;;;;;7.54;86.86;99370.47;4925381;29;20061;-82
2024/01/01 04:03:25;;;;;;;5.57;2.47;;;;;;;7.47;86.78;99366.25;4935243;29;20048;-82
2024/01/01 04:05:52;;;;;;;9.10;3.47;;;;;;;7.39;87.53;99366.38;4938378;29;20071;-82
2024/01/01 04:08:19;;;;;;;4.85;2.20;;;;;;;7.39;87.01;99364.66;4923426;29;20532;-82
2024/01/01 04:10:48;;;;;;;2.70;2.08;;;;;;;7.34;87.62;99373.41;4939191;29;20043;-82
2024/01/01 04:13:18;;;;;;;5.47;2.97;;;;;;;7.33;87.44;99369.94;4922067;29;20137;-82
2024/01/01 04:15:44;;;;;;;6.25;3.08;;;;;;;7.29;87.36;99370.88;4926182;29;20051;-82
2024/01/01 04:18:11;;;;;;;5.88;2.20;;;;;;;7.39;87.17;99380.28;4932154;29;20040;-82
2024/01/01 04:20:37;;;;;;;4.00;2.17;;;;;;;7.48;86.50;99373.19;4921668;29;20581;-82
2024/01/01 04:23:04;;;;;;;6.88;2.45;;;;;;;7.49;86.29;99372.28;4934553;29;20051;-82
2024/01/01 04:25:31;;;;;;;13.27;3.05;;;;;;;7.52;86.34;99380.03;4923685;29;20449;-82
2024/01/01 04:28:00;;;;;;;7.53;2.20;;;;;;;7.53;85.58;99369.59;4939678;29;20043;-81
2024/01/01 04:30:26;;;;;;;3.92;1.98;;;;;;;7.58;85.37;99366.94;4948353;29;20373;-82
2024/01/01 04:32:53;;;;;;;5.07;2.10;;;;;;;7.62;84.32;99363.38;4935100;29;20047;-82
2024/01/01 04:35:19;;;;;;;5.65;2.05;;;;;;;7.72;84.03;99374.50;4935776;29;20520;-82
2024/01/01 04:37:46;;;;;;;4.32;2.13;;;;;;;7.71;83.92;99362.38;4935710;29;20090;-81
2024/01/01 04:40:13;;;;;;;5.47;1.90;;;;;;;7.64;84.03;99363.34;4930154;29;20564;-82
2024/01/01 04:42:39;;;;;;;7.70;1.90;;;;;;;7.64;82.96;99358.13;4935488;29;20146;-82
2024/01/01 04:45:06;;;;;;;8.95;2.15;;;;;;;7.68;83.19;99362.41;4927721;29;20142;-82
2024/01/01 04:47:33;;;;;;;2.08;1.50;;;;;;;7.68;83.25;99362.41;4935022;29;20590;-82
2024/01/01 04:49:59;;;;;;;4.07;2.95;;;;;;;7.69;82.76;99359.78;4925141;29;20150;-82
2024/01/01 04:52:32;;;;;;;5.13;2.42;;;;;;;7.69;82.23;99361.53;4923246;29;20059;-81
2024/01/01 04:54:58;;;;;;;4.90;3.33;;;;;;;7.72;82.59;99357.13;4919105;29;20661;-81
2024/01/01 04:57:26;;;;;;;3.65;1.90;;;;;;;7.71;81.75;99355.41;4916707;29;20490;-81
2024/01/01 04:59:52;;;;;;;4.28;2.30;;;;;;;7.70;81.86;99351.06;4922418;29;20477;-81
2024/01/01 05:02:19;;;;;;;4.05;1.83;;;;;;;7.72;81.44;99354.50;4930846;29;20122;-81
2024/01/01 05:04:45;;;;;;;2.42;1.90;;;;;;;7.78;80.54;99350.94;4917027;29;20054;-81
2024/01/01 05:07:12;;;;;;;5.05;1.50;;;;;;;7.83;79.86;99343.03;4936014;29;20043;-81
2024/01/01 05:09:47;;;;;;;8.65;2.55;;;;;;;7.87;79.78;99349.91;4930036;29;20409;-80
2024/01/01 05:12:18;;;;;;;4.60;1.60;;;;;;;7.88;79.81;99346.41;4935596;29;21047;-82
2024/01/01 05:14:45;;;;;;;5.95;2.40;;;;;;;7.86;79.10;99349.06;4924578;29;20047;-81
2024/01/01 05:17:12;;;;;;;6.47;1.85;;;;;;;7.85;79.15;99349.94;4929920;29;20047;-81
2024/01/01 05:19:38;;;;;;;3.97;1.58;;;;;;;7.91;78.87;99365.47;4921884;29;20078;-80
2024/01/01 05:22:06;;;;;;;1.92;1.40;;;;;;;7.90;78.38;99363.75;4921676;29;20047;-81
2024/01/01 05:24:35;;;;;;;5.93;1.92;;;;;;;7.95;78.34;99366.25;4929128;29;20134;-81
2024/01/01 05:27:03;;;;;;;9.35;1.67;;;;;;;7.98;78.34;99367.94;4929339;29;20061;-81
2024/01/01 05:29:32;;;;;;;3.28;1.38;;;;;;;7.98;78.16;99363.59;4921150;29;20046;-82
2024/01/01 05:31:59;;;;;;;6.78;1.63;;;;;;;7.95;78.25;99363.63;4930189;29;20085;-81
2024/01/01 05:34:25;;;;;;;7.80;1.60;;;;;;;7.91;78.12;99357.66;4921309;29;20136;-82
2024/01/01 05:36:52;;;;;;;4.00;1.85;;;;;;;7.97;78.23;99363.63;4933436;29;20043;-81
2024/01/01 05:39:18;;;;;;;5.53;2.78;;;;;;;7.99;78.28;99374.88;4950049;29;20115;-82
2024/01/01 05:41:44;;;;;;;8.88;1.30;;;;;;;7.98;77.94;99375.75;4935125;29;20064;-81
2024/01/01 05:44:11;;;;;;;6.75;2.03;;;;;;;8.01;77.82;99396.56;4918299;29;20051;-81
2024/01/01 05:46:37;;;;;;;5.97;1.38;;;;;;;7.98;79.40;99401.81;4917948;29;20086;-81
2024/01/01 05:49:04;;;;;;;7.03;2.38;;;;;;;7.89;81.70;99406.31;4934008;29;20050;-82
2024/01/01 05:51:30;;;;;;;6.03;1.55;;;;;;;7.77;84.54;99419.56;4928497;29;20051;-81
2024/01/01 05:53:57;;;;;;;4.72;2.08;;;;;;;7.66;87.92;99413.69;4927754;29;20051;-81
2024/01/01 05:56:27;;;;;;;3.63;1.75;;;;;;;7.52;90.43;99434.72;4937485;29;20057;-81
2024/01/01 05:58:54;;;;;;;5.90;1.50;;;;;;;7.42;92.38;99439.25;4944156;29;20623;-82
2024/01/01 06:01:21;;;;;;;1.90;1.50;;;;;;;7.35;94.38;99425.44;4935985;29;20111;-81
2024/01/01 06:03:48;;;;;;;3.60;1.17;;;;;;;7.25;95.61;99426.47;4940426;29;20106;-81
2024/01/01 06:06:17;;;;;;;5.28;2.05;;;;;;;7.21;95.53;99425.66;4927197;29;20069;-81
2024/01/01 06:08:43;;;;;;;1.75;0.95;;;;;;;7.17;96.34;99426.59;4954916;28;20057;-81
2024/01/01 06:11:10;;;;;;;3.83;1.67;;;;;;;7.14;97.88;99428.38;4934102;29;20074;-81
2024/01/01 06:13:36;;;;;;;4.90;1.58;;;;;;;7.21;97.90;99424.78;4941073;29;20070;-80
2024/01/01 06:16:04;;;;;;;6.47;1.20;;;;;;;7.15;99.83;99420.53;4947155;29;20118;-80
2024/01/01 06:18:30;;;;;;;3.20;1.75;;;;;;;7.16;100.00;99429.19;4939361;29;20071;-82
2024/01/01 06:20:57;;;;;;;1.40;1.23;;;;;;;7.12;100.00;99423.19;4940659;29;20043;-81
2024/01/01 06:23:23;;;;;;;3.22;1.45;;;;;;;7.09;100.00;99425.81;4943465;29;20055;-81
2024/01/01 06:25:52;;;;;;;6.65;3.15;;;;;;;7.05;100.00;99434.56;4931410;29;20075;-82
2024/01/01 06:28:21;;;;;;;3.50;1.45;;;;;;;6.95;100.00;99433.84;4944214;29;20041;-83
2024/01/01 06:30:48;;;;;;;3.97;1.50;;;;;;;6.95;100.00;99439.91;4939364;29;20082;-81
2024/01/01 06:33:15;;;;;;;8.43;1.92;;;;;;;6.95;100.00;99439.06;4935424;29;20051;-81
2024/01/01 06:35:41;;;;;;;3.22;1.98;;;;;;;6.93;100.00;99436.44;4955505;28;20400;-80
2024/01/01 06:38:08;;;;;;;5.00;1.83;;;;;;;6.90;100.00;99438.25;4926057;29;20047;-81
2024/01/01 06:40:35;;;;;;;2.63;1.15;;;;;;;7.00;100.00;99447.66;4944008;29;20066;-82
2024/01/01 06:43:01;;;;;;;3.53;1.40;;;;;;;6.98;100.00;99453.75;4939140;29;20099;-81
2024/01/01 06:45:31;;;;;;;5.68;1.50;;;;;;;7.02;100.00;99458.03;4929351;29;20055;-81
2024/01/01 06:47:57;;;;;;;9.75;2.28;;;;;;;7.07;100.00;99458.84;4941730;29;20448;-81
2024/01/01 06:50:24;;;;;;;5.28;1.30;;;;;;;7.05;100.00;99458.88;4927463;29;20135;-81
2024/01/01 06:52:50;;;;;;;3.22;1.55;;;;;;;7.07;100.00;99461.44;4932896;29;20063;-81
2024/01/01 06:55:18;;;;;;;6.43;2.20;;;;;;;6.91;100.00;99453.84;4928927;29;20069;-80
2024/01/01 06:57:45;;;;;;;3.92;1.40;;;;;;;6.91;100.00;99460.75;4954507;29;20098;-80
2024/01/01 07:00:12;;;;;;;5.22;1.33;;;;;;;6.94;100.00;99466.78;4927619;29;20058;-81
2024/01/01 07:02:38;;;;;;;5.53;1.20;;;;;;;6.95;100.00;99465.91;4934494;29;20051;-82
2024/01/01 07:05:06;;;;;;;4.63;1.52;;;;;;;6.97;100.00;99473.69;4940396;29;20043;-81
2024/01/01 07:07:33;;;;;;;4.32;1.70;;;;;;;6.94;100.00;99473.75;4948660;29;20044;-81
2024/01/01 07:09:58;;;;;;;3.10;1.42;;;;;;;6.83;100.00;99467.81;4946307;29;20452;-82
2024/01/01 07:12:28;;;;;;;4.82;1.85;;;;;;;6.82;100.00;99471.28;4930659;29;20058;-82
2024/01/01 07:14:55;;;;;;;9.82;2.13;;;;;;;6.85;100.00;99476.47;4943910;29;20087;-81
2024/01/01 07:17:22;;;;;;;4.18;1.27;;;;;;;6.91;100.00;99481.56;4946611;29;20042;-82
2024/01/01 07:19:49;;;;;;;2.03;1.02;;;;;;;6.84;100.00;99485.16;4919029;29;20190;-82
2024/01/01 07:22:16;;;;;;;4.57;1.42;;;;;;;6.83;100.00;99486.91;4925580;29;20051;-81
2024/01/01 07:24:42;;;;;;;8.20;1.48;;;;;;;6.80;100.00;99481.72;4943674;29;20032;-81
2024/01/01 07:27:09;;;;;;;6.90;2.55;;;;;;;6.68;100.00;99490.53;4942104;29;20102;-81
2024/01/01 07:29:35;;;;;;;8.90;1.23;;;;;;;6.76;100.00;99491.28;4926745;29;20617;-81
2024/01/01 07:32:04;;;;;;;2.70;1.80;;;;;;;6.77;100.00;99495.63;4939438;29;20164;-81
2024/01/01 07:34:35;;;;;;;8.70;1.30;;;;;;;6.77;100.00;99493.03;4937393;29;20043;-81
2024/01/01 07:37:04;;;;;;;4.45;1.52;;;;;;;6.77;100.00;99498.22;4944745;29;20043;-81
2024/01/01 07:39:31;;;;;;;3.53;1.17;;;;;;;6.74;100.00;99495.66;4926902;29;20429;-81
2024/01/01 07:41:57;;;;;;;4.32;1.40;;;;;;;6.74;100.00;99500.88;4944511;29;20048;-81
2024/01/01 07:44:24;;;;;;;7.40;1.35;;;;;;;6.72;100.00;99506.97;4928296;29;20059;-81
2024/01/01 07:46:51;;;;;;;4.38;1.23;;;;;;;6.71;100.00;99500.88;4941410;29;20062;-81
2024/01/01 07:49:17;;;;;;;7.97;1.50;;;;;;;6.79;100.00;99509.47;4935281;29;20039;-81
2024/01/01 07:51:44;;;;;;;7.13;1.15;;;;;;;6.82;100.00;99505.09;4924280;29;20062;-81
2024/01/01 07:54:11;;;;;;;7.03;1.15;;;;;;;6.81;100.00;99511.22;4928073;29;20070;-81
2024/01/01 07:56:37;;;;;;;4.22;0.90;;;;;;;6.85;100.00;99512.91;4943239;29;20292;-81
2024/01/01 07:59:07;;;;;;;5.65;1.30;;;;;;;6.89;100.00;99504.16;4939497;29;20071;-81
2024/01/01 08:01:34;;;;;;;6.32;1.00;;;;;;;6.90;100.00;99508.50;4942652;29;20043;-81
2024/01/01 08:04:01;;;;;;;5.85;1.13;;;;;;;6.86;100.00;99512.88;4936115;29;20408;-79
2024/01/01 08:06:27;;;;;;;2.05;0.88;;;;;;;6.84;100.00;99514.63;4925503;29;20043;-82
2024/01/01 08:08:54;;;;;;;6.00;1.25;;;;;;;6.89;100.00;99518.03;4954972;29;20682;-81
2024/01/01 08:11:23;;;;;;;5.97;0.88;;;;;;;6.84;100.00;99516.38;4941497;29;20047;-83
2024/01/01 08:13:50;;;;;;;1.55;0.70;;;;;;;6.86;100.00;99522.44;4948334;29;20099;-81
2024/01/01 08:16:19;;;;;;;4.55;1.35;;;;;;;6.83;100.00;99520.72;4942993;29;20070;-82
2024/01/01 08:18:48;;;;;;;9.15;1.40;;;;;;;6.85;100.00;99516.34;4922333;29;20127;-81
2024/01/01 08:21:15;;;;;;;4.45;1.02;;;;;;;6.85;100.00;99518.94;4937677;29;20055;-81
2024/01/01 08:23:44;;;;;;;2.33;0.90;;;;;;;6.87;100.00;99518.91;4939477;29;20056;-82
2024/01/01 08:26:11;;;;;;;2.25;0.82;;;;;;;6.88;100.00;99520.66;4928290;29;20075;-82
2024/01/01 08:28:37;;;;;;;5.30;1.80;;;;;;;6.87;100.00;99518.91;4943096;29;20047;-82
2024/01/01 08:31:04;;;;;;;6.10;1.38;;;;;;;6.87;100.00;99519.81;4925632;29;20143;-82
2024/01/01 08:33:31;;;;;;;1.80;0.90;;;;;;;6.89;100.00;99520.63;4927992;29;20043;-81
2024/01/01 08:36:00;;;;;;;4.97;1.60;;;;;;;6.90;100.00;99505.91;4941423;29;20079;-83
2024/01/01 08:38:27;;;;;;;5.00;0.90;;;;;;;6.91;100.00;99518.88;4918883;29;20047;-81
2024/01/01 08:40:53;;;;;;;3.97;0.75;;;;;;;6.97;100.00;99530.94;4942337;29;20071;-81
2024/01/01 08:43:20;;;;;;;7.60;2.35;;;;;;;6.92;100.00;99531.00;4943178;29;20065;-81
2024/01/01 08:45:47;;;;;;;2.67;0.90;;;;;;;6.89;100.00;99524.97;4935123;29;20057;-81
2024/01/01 08:48:21;;;;;;;5.00;1.27;;;;;;;6.99;100.00;99528.31;4937716;29;20051;-82
2024/01/01 08:50:51;;;;;;;2.45;1.05;;;;;;;6.97;100.00;99532.69;4947020;29;20046;-82
2024/01/01 08:53:17;;;;;;;4.93;1.02;;;;;;;6.94;100.00;99536.19;4924697;29;20055;-82
2024/01/01 08:55:44;;;;;;;4.10;1.10;;;;;;;6.95;100.00;99528.34;4951517;29;20118;-82
2024/01/01 08:58:11;;;;;;;5.93;1.00;;;;;;;6.91;100.00;99536.22;4936407;29;20047;-82
2024/01/01 09:00:37;;;;;;;4.20;0.85;;;;;;;6.98;100.00;99534.41;4924783;29;20074;-82
2024/01/01 09:03:04;;;;;;;6.63;1.65;;;;;;;6.92;100.00;99531.00;4923459;29;20051;-82
2024/01/01 09:05:31;;;;;;;2.15;1.17;;;;;;;6.94;100.00;99533.59;4940065;29;20085;-81
2024/01/01 09:08:00;;;;;;;3.40;1.50;;;;;;;7.02;100.00;99544.75;4924364;29;20629;-81
2024/01/01 09:10:27;;;;;;;2.75;1.10;;;;;;;6.90;100.00;99534.50;4923397;29;20052;-81
2024/01/01 09:12:56;;;;;;;1.95;0.90;;;;;;;6.88;100.00;99534.53;4939474;29;20053;-81
2024/01/01 09:15:25;;;;;;;3.88;1.45;;;;;;;6.94;100.00;99538.78;4938238;29;20119;-82
2024/01/01 09:17:51;;;;;;;5.70;1.05;;;;;;;6.98;100.00;99543.06;4939343;29;20126;-81
2024/01/01 09:20:27;;;;;;;7.80;1.52;;;;;;;6.96;100.00;99544.81;4927158;29;20536;-81
2024/01/01 09:22:57;;;;;;;5.13;1.60;;;;;;;7.01;100.00;99544.78;4939606;29;20051;-81
2024/01/01 09:25:28;;;;;;;4.43;0.77;;;;;;;7.06;100.00;99551.63;4923856;29;20067;-82
2024/01/01 09:27:55;;;;;;;4.10;1.00;;;;;;;7.07;100.00;99550.75;4937846;29;20142;-81
2024/01/01 09:30:22;;;;;;;5.90;0.90;;;;;;;7.06;100.00;99558.59;4921046;29;20461;-82
2024/01/01 09:32:49;;;;;;;3.92;1.38;;;;;;;7.10;100.00;99562.88;4920447;29;20070;-82
2024/01/01 09:35:16;;;;;;;4.45;1.00;;;;;;;7.06;100.00;99558.59;4925961;29;20067;-81
2024/01/01 09:37:42;;;;;;;5.20;0.93;;;;;;;7.14;100.00;99561.94;4937498;29;20062;-80
2024/01/01 09:40:14;;;;;;;5.47;1.20;;;;;;;7.04;100.00;99563.81;4939032;29;20134;-81
2024/01/01 09:42:51;;;;;;;4.63;0.95;;;;;;;6.99;100.00;99563.03;4939953;29;20064;-81
2024/01/01 09:45:17;;;;;;;8.25;1.70;;;;;;;7.07;100.00;99573.34;4937607;29;20048;-81
2024/01/01 09:47:47;;;;;;;1.75;0.70;;;;;;;6.94;100.00;99568.25;4937234;29;20055;-82
2024/01/01 09:50:14;;;;;;;5.25;1.70;;;;;;;6.95;100.00;99575.19;4918419;29;20067;-82
2024/01/01 09:52:40;;;;;;;4.03;1.35;;;;;;;6.94;100.00;99572.63;4932868;29;20052;-82
2024/01/01 09:55:08;;;;;;;5.85;1.00;;;;;;;6.98;100.00;99574.28;4928653;29;20562;-81
2024/01/01 09:57:35;;;;;;;3.97;1.00;;;;;;;6.92;100.00;99580.44;4914978;29;20047;-82
2024/01/01 10:00:05;;;;;;;3.53;1.20;;;;;;;6.92;100.00;99579.56;4926196;29;20117;-81
2024/01/01 10:02:32;;;;;;;3.53;0.95;;;;;;;6.99;100.00;99576.03;4923762;29;20554;-81
2024/01/01 10:05:12;;;;;;;8.50;1.52;;;;;;;7.00;100.00;99587.28;4917581;29;20120;-80
2024/01/01 10:07:39;;;;;;;5.53;1.10;;;;;;;6.94;100.00;99585.63;4917031;29;20107;-81
2024/01/01 10:10:06;;;;;;;3.80;1.40;;;;;;;7.06;100.00;99582.88;4920848;29;20661;-81
2024/01/01 10:12:33;;;;;;;9.07;2.08;;;;;;;7.06;100.00;99585.47;4918784;29;20429;-81
2024/01/01 10:15:00;;;;;;;11.32;3.28;;;;;;;7.01;100.00;99582.06;4917859;29;20060;-81
2024/01/01 10:17:30;;;;;;;8.43;2.17;;;;;;;7.10;100.00;99581.97;4914293;29;20138;-81
2024/01/01 10:20:00;;;;;;;5.55;1.50;;;;;;;7.18;100.00;99587.06;4912063;29;20102;-82
2024/01/01 10:22:34;;;;;;;6.85;0.88;;;;;;;7.21;100.00;99593.97;4920393;29;20059;-84
2024/01/01 10:25:11;;;;;;;;;;;;;;;7.19;100.00;99594.00;4933120;29;20074;-81
2024/01/01 10:27:37;;;;;;;3.33;0.98;;;;;;;7.25;100.00;99598.28;4940580;29;19927;-81
2024/01/01 10:30:05;;;;;;;4.75;1.08;;;;;;;7.26;100.00;99606.06;4932583;29;20071;-80
2024/01/01 10:32:32;;;;;;;20.02;12.05;;;;;;;7.34;100.00;99605.97;4922111;29;20063;-82
2024/01/01 10:34:59;;;;;;;6.03;1.98;;;;;;;7.29;100.00;99608.63;4930761;29;20051;-82
2024/01/01 10:37:28;;;;;;;4.25;1.05;;;;;;;7.23;100.00;99608.69;4935152;29;20071;-81
2024/01/01 10:39:58;;;;;;;4.45;1.40;;;;;;;7.18;100.00;99610.47;4931261;29;20504;-81
2024/01/01 10:42:31;;;;;;;3.92;0.98;;;;;;;7.12;100.00;99621.84;4918473;29;20131;-83
2024/01/01 10:45:03;;;;;;;3.20;0.80;;;;;;;7.16;100.00;99622.66;4938617;29;20170;-81
2024/01/01 10:47:31;;;;;;;2.58;0.70;;;;;;;7.16;100.00;99619.19;4941726;29;20051;-83
2024/01/01 10:50:27;;;;;;;7.57;1.17;;;;;;;7.06;100.00;99615.84;4945075;29;20114;-82
2024/01/01 10:53:39;;;;;;;1.90;0.93;;;;;;;7.15;100.00;99620.94;4941881;29;20047;-81
2024/01/01 10:56:47;;;;;;;3.58;1.08;;;;;;;7.18;100.00;99615.69;4924505;29;20059;-81
2024/01/01 10:59:20;;;;;;;4.80;1.20;;;;;;;7.16;100.00;99614.88;4943448;29;20070;-81
2024/01/01 11:01:53;;;;;;;6.93;1.88;;;;;;;7.26;100.00;99618.19;4944727;29;20050;-80
2024/01/01 11:04:21;;;;;;;1.83;1.05;;;;;;;7.21;100.00;99610.47;4945325;29;20063;-82
2024/01/01 11:06:47;;;;;;;3.90;0.73;;;;;;;7.25;100.00;99612.16;4952762;29;20062;-82
2024/01/01 11:09:20;;;;;;;4.55;1.15;;;;;;;7.25;100.00;99612.16;4925467;29;20416;-82
2024/01/01 11:11:55;;;;;;;4.13;1.00;;;;;;;7.22;100.00;99619.13;4944015;29;20060;-80
2024/01/01 11:14:34;;;;;;;5.32;0.70;;;;;;;7.20;100.00;99608.75;4929277;29;20051;-81
2024/01/01 11:17:09;;;;;;;1.48;0.68;;;;;;;7.28;100.00;99616.44;4931102;29;20043;-82
2024/01/01 11:19:47;;;;;;;3.72;2.03;;;;;;;7.30;100.00;99619.91;4922890;29;20517;-79
2024/01/01 11:22:18;;;;;;;2.50;0.82;;;;;;;7.27;100.00;99614.72;4910574;29;20059;-82
2024/01/01 11:24:46;;;;;;;2.47;0.82;;;;;;;7.28;100.00;99621.66;4942485;29;20047;-80
2024/01/01 11:27:34;;;;;;;3.30;0.60;;;;;;;7.27;100.00;99615.59;4934366;29;20039;-81
2024/01/01 11:30:09;;;;;;;3.38;1.30;;;;;;;7.23;100.00;99613.91;4913156;29;20563;-80
2024/01/01 11:32:37;;;;;;;3.25;1.10;;;;;;;7.26;100.00;99606.06;4913042;29;20059;-81
2024/01/01 11:35:05;;;;;;;1.65;0.70;;;;;;;7.29;100.00;99608.63;4929640;29;20070;-81
2024/01/01 11:37:32;;;;;;;2.65;1.48;;;;;;;7.28;100.00;99609.50;4936684;29;20062;-81
2024/01/01 11:40:00;;;;;;;4.18;1.02;;;;;;;7.23;100.00;99611.28;4913345;29;20537;-81